createdAt,value
2018-07-04T00:02:35.334Z,20.97
2018-07-04T00:05:22.239Z,19.73
2018-07-04T00:08:08.781Z,25.23
2018-07-04T00:10:55.843Z,19.00
2018-07-04T00:13:42.957Z,23.23
2018-07-04T00:16:29.935Z,24.20
2018-07-04T00:19:16.715Z,19.33
2018-07-04T00:22:03.807Z,20.70
2018-07-04T00:24:50.370Z,25.07
2018-07-04T00:27:37.334Z,18.83
2018-07-04T00:30:24.024Z,18.87
2018-07-04T00:33:11.350Z,22.80
2018-07-04T00:35:58.127Z,25.00
2018-07-04T00:38:44.967Z,21.30
2018-07-04T00:41:31.711Z,20.87
2018-07-04T00:44:18.711Z,23.50
2018-07-04T00:47:05.455Z,22.80
2018-07-04T00:49:52.434Z,19.47
2018-07-04T00:52:39.035Z,20.60
2018-07-04T00:55:25.706Z,21.87
2018-07-04T00:58:12.356Z,22.07
2018-07-04T01:00:59.025Z,26.27
2018-07-04T01:03:45.626Z,21.13
2018-07-04T01:06:32.311Z,20.73
2018-07-04T01:09:19.315Z,18.30
2018-07-04T01:12:05.992Z,20.57
2018-07-04T01:14:53.233Z,21.70
2018-07-04T01:17:39.870Z,21.90
2018-07-04T01:20:31.150Z,21.67
2018-07-04T01:23:17.827Z,30.50
2018-07-04T01:26:04.966Z,24.23
2018-07-04T01:28:51.618Z,22.07
2018-07-04T01:31:38.713Z,22.90
2018-07-04T01:34:25.460Z,23.43
2018-07-04T01:37:12.443Z,22.60
2018-07-04T01:39:59.387Z,26.63
2018-07-04T01:42:46.470Z,30.33
2018-07-04T01:45:33.209Z,23.73
2018-07-04T01:48:20.473Z,24.13
2018-07-04T01:51:07.242Z,21.07
2018-07-04T01:53:53.963Z,21.23
2018-07-04T01:56:40.882Z,28.47
2018-07-04T01:59:27.697Z,22.13
2018-07-04T02:02:14.779Z,22.30
2018-07-04T02:05:01.604Z,21.03
2018-07-04T02:07:48.599Z,22.53
2018-07-04T02:10:35.471Z,25.97
2018-07-04T02:13:22.234Z,26.30
2018-07-04T02:16:08.874Z,40.23
2018-07-04T02:18:55.936Z,26.20
2018-07-04T02:21:42.627Z,26.75
2018-07-04T02:24:29.342Z,24.77
2018-07-04T02:27:16.374Z,23.23
2018-07-04T02:30:03.607Z,21.53
2018-07-04T02:32:50.399Z,21.23
2018-07-04T02:35:37.538Z,24.00
2018-07-04T02:38:24.534Z,27.70
2018-07-04T02:41:11.870Z,24.97
2018-07-04T02:43:58.496Z,26.63
2018-07-04T02:46:45.604Z,25.97
2018-07-04T02:49:32.350Z,25.47
2018-07-04T02:52:19.642Z,28.50
2018-07-04T02:55:06.223Z,25.00
2018-07-04T02:57:53.356Z,28.07
2018-07-04T03:00:40.258Z,27.40
2018-07-04T03:03:27.386Z,24.67
2018-07-04T03:06:14.300Z,25.57
2018-07-04T03:09:01.382Z,26.47
2018-07-04T03:11:48.366Z,37.37
2018-07-04T03:14:35.415Z,31.03
2018-07-04T03:17:21.817Z,33.57
2018-07-04T03:20:08.832Z,32.63
2018-07-04T03:22:55.687Z,28.13
2018-07-04T03:25:43.014Z,31.33
2018-07-04T03:28:29.578Z,27.93
2018-07-04T03:31:16.448Z,27.03
2018-07-04T03:34:03.298Z,27.23
2018-07-04T03:36:50.079Z,25.20
2018-07-04T03:39:37.057Z,29.33
2018-07-04T03:42:24.413Z,31.30
2018-07-04T03:45:11.192Z,26.73
2018-07-04T03:47:58.517Z,27.30
2018-07-04T03:50:44.960Z,25.90
2018-07-04T03:53:32.204Z,27.83
2018-07-04T03:56:19.186Z,24.20
2018-07-04T03:59:06.200Z,34.13
2018-07-04T04:01:52.974Z,23.53
2018-07-04T04:04:40.219Z,27.33
2018-07-04T04:07:26.921Z,25.27
2018-07-04T04:10:14.162Z,25.13
2018-07-04T04:13:00.903Z,27.47
2018-07-04T04:15:48.196Z,23.57
2018-07-04T04:18:34.688Z,30.73
2018-07-04T04:21:21.923Z,25.87
2018-07-04T04:24:08.812Z,28.37
2018-07-04T04:26:55.811Z,30.13
2018-07-04T04:29:42.767Z,27.27
2018-07-04T04:32:29.672Z,26.97
2018-07-04T04:35:16.503Z,24.90
2018-07-04T04:38:03.559Z,24.27
2018-07-04T04:40:50.279Z,29.23
2018-07-04T04:43:37.354Z,27.03
2018-07-04T04:46:24.105Z,24.97
2018-07-04T04:49:10.838Z,27.37
2018-07-04T04:51:57.375Z,23.90
2018-07-04T04:54:43.890Z,27.27
2018-07-04T04:57:30.450Z,26.63
2018-07-04T05:00:17.250Z,20.83
2018-07-04T05:03:03.895Z,20.37
2018-07-04T05:05:50.759Z,23.53
2018-07-04T05:08:37.439Z,20.07
2018-07-04T05:11:24.642Z,18.63
2018-07-04T05:14:11.310Z,20.87
2018-07-04T05:16:57.609Z,19.00
2018-07-04T05:19:43.994Z,19.03
2018-07-04T05:22:30.555Z,31.20
2018-07-04T05:25:17.359Z,24.07
2018-07-04T05:28:04.366Z,22.60
2018-07-04T05:30:51.271Z,24.60
2018-07-04T05:33:38.218Z,20.23
2018-07-04T05:36:25.101Z,27.70
2018-07-04T05:39:12.112Z,26.23
2018-07-04T05:41:58.831Z,27.57
2018-07-04T05:44:45.950Z,24.57
2018-07-04T05:47:32.952Z,25.62
2018-07-04T05:50:20.107Z,31.17
2018-07-04T05:53:06.998Z,30.55
2018-07-04T05:55:54.336Z,31.05
2018-07-04T05:58:41.069Z,29.85
2018-07-04T06:01:28.387Z,23.85
2018-07-04T06:04:15.143Z,45.78
2018-07-04T06:07:02.368Z,23.50
2018-07-04T06:09:49.023Z,38.73
2018-07-04T06:12:36.227Z,25.10
2018-07-04T06:15:22.908Z,26.20
2018-07-04T06:18:10.158Z,23.92
2018-07-04T06:20:56.860Z,26.57
2018-07-04T06:23:43.994Z,30.95
2018-07-04T06:26:30.779Z,24.50
2018-07-04T06:29:17.929Z,28.38
2018-07-04T06:32:04.611Z,26.45
2018-07-04T06:34:51.552Z,19.35
2018-07-04T06:37:41.407Z,19.95
2018-07-04T06:40:10.621Z,25.77
2018-07-04T06:42:39.019Z,24.10
2018-07-04T06:45:06.932Z,21.65
2018-07-04T06:47:35.171Z,29.48
2018-07-04T06:50:03.212Z,19.92
2018-07-04T06:52:31.127Z,43.13
2018-07-04T06:54:59.385Z,31.70
2018-07-04T06:57:27.386Z,21.50
2018-07-04T06:59:55.452Z,23.05
2018-07-04T07:02:23.904Z,30.17
2018-07-04T07:05:04.649Z,24.85
2018-07-04T07:07:52.084Z,20.60
2018-07-04T07:10:38.968Z,26.52
2018-07-04T07:13:25.681Z,30.95
2018-07-04T07:16:12.076Z,25.92
2018-07-04T07:18:59.130Z,31.48
2018-07-04T07:21:45.675Z,23.55
2018-07-04T07:24:32.876Z,23.22
2018-07-04T07:27:19.648Z,20.02
2018-07-04T07:30:06.902Z,19.98
2018-07-04T07:32:53.687Z,23.45
2018-07-04T07:35:40.511Z,16.12
2018-07-04T07:38:27.359Z,19.40
2018-07-04T07:41:14.265Z,26.25
2018-07-04T07:44:00.752Z,21.90
2018-07-04T07:46:47.430Z,27.02
2018-07-04T07:49:34.302Z,29.07
2018-07-04T07:52:21.603Z,23.75
2018-07-04T07:55:08.695Z,39.88
2018-07-04T07:57:55.979Z,19.37
2018-07-04T08:00:42.831Z,19.07
2018-07-04T08:03:30.071Z,20.52
2018-07-04T08:06:16.976Z,41.53
2018-07-04T08:09:04.827Z,21.97
2018-07-04T08:11:51.250Z,23.92
2018-07-04T08:14:38.330Z,26.77
2018-07-04T08:17:25.232Z,24.45
2018-07-04T08:20:12.174Z,36.88
2018-07-04T08:22:59.163Z,16.42
2018-07-04T08:25:47.272Z,19.60
2018-07-04T08:28:33.907Z,18.10
2018-07-04T08:31:20.956Z,18.10
2018-07-04T08:34:07.746Z,22.77
2018-07-04T08:36:54.987Z,26.07
2018-07-04T08:39:41.779Z,17.90
2018-07-04T08:42:29.010Z,23.45
2018-07-04T08:45:15.539Z,17.27
2018-07-04T08:48:02.635Z,20.85
2018-07-04T08:50:49.587Z,25.25
2018-07-04T08:53:36.871Z,27.02
2018-07-04T08:56:23.594Z,21.57
2018-07-04T08:59:10.716Z,18.15
2018-07-04T09:01:57.555Z,28.50
2018-07-04T09:04:44.411Z,19.17
2018-07-04T09:07:30.827Z,20.95
2018-07-04T09:10:17.519Z,23.27
2018-07-04T09:13:03.932Z,22.98
2018-07-04T09:15:50.963Z,18.92
2018-07-04T09:18:37.610Z,23.80
2018-07-04T09:21:24.243Z,22.35
2018-07-04T09:24:11.158Z,23.07
2018-07-04T09:26:58.410Z,20.55
2018-07-04T09:29:45.177Z,27.82
2018-07-04T09:32:32.460Z,16.67
2018-07-04T09:35:19.235Z,21.65
2018-07-04T09:38:06.523Z,27.00
2018-07-04T09:40:52.962Z,33.95
2018-07-04T09:43:39.771Z,22.82
2018-07-04T09:46:26.597Z,26.05
2018-07-04T09:49:13.439Z,16.10
2018-07-04T09:52:00.424Z,23.22
2018-07-04T09:54:47.455Z,20.90
2018-07-04T09:57:34.256Z,34.13
2018-07-04T10:00:25.492Z,20.48
2018-07-04T10:03:12.077Z,22.85
2018-07-04T10:05:59.215Z,23.80
2018-07-04T10:08:46.009Z,47.27
2018-07-04T10:11:33.643Z,25.65
2018-07-04T10:14:20.169Z,26.00
2018-07-04T10:17:06.889Z,18.90
2018-07-04T10:19:53.601Z,19.95
2018-07-04T10:22:40.863Z,21.82
2018-07-04T10:25:27.742Z,23.57
2018-07-04T10:28:14.935Z,17.80
2018-07-04T10:31:01.711Z,22.50
2018-07-04T10:33:49.624Z,20.20
2018-07-04T10:36:36.378Z,35.80
2018-07-04T10:39:23.713Z,26.95
2018-07-04T10:42:10.207Z,29.60
2018-07-04T10:44:56.549Z,32.83
2018-07-04T10:47:43.056Z,18.62
2018-07-04T10:50:29.619Z,17.35
2018-07-04T10:53:16.528Z,19.82
2018-07-04T10:56:03.120Z,30.95
2018-07-04T10:58:50.092Z,22.85
2018-07-04T11:01:36.696Z,19.20
2018-07-04T11:04:23.878Z,21.30
2018-07-04T11:07:10.441Z,18.77
2018-07-04T11:09:57.209Z,22.80
2018-07-04T11:12:44.432Z,18.15
2018-07-04T11:15:30.723Z,25.05
2018-07-04T11:18:17.580Z,22.13
2018-07-04T11:21:04.449Z,16.00
2018-07-04T11:23:51.368Z,23.70
2018-07-04T11:26:38.231Z,22.10
2018-07-04T11:29:25.603Z,15.53
2018-07-04T11:32:12.620Z,15.53
2018-07-04T11:34:59.534Z,18.23
2018-07-04T11:37:46.370Z,19.20
2018-07-04T11:40:33.731Z,22.82
2018-07-04T11:43:20.894Z,19.10
2018-07-04T11:45:58.015Z,15.50
2018-07-04T11:48:26.152Z,21.00
2018-07-04T11:50:56.132Z,25.52
2018-07-04T11:53:24.431Z,15.50
2018-07-04T11:55:52.556Z,19.02
2018-07-04T11:58:20.686Z,16.02
2018-07-04T12:00:49.138Z,15.20
2018-07-04T12:03:18.784Z,11.68
2018-07-04T12:05:59.809Z,11.35
2018-07-04T12:08:34.001Z,13.93
2018-07-04T12:11:02.555Z,12.20
2018-07-04T12:13:30.555Z,15.93
2018-07-04T12:15:58.606Z,13.95
2018-07-04T12:18:26.919Z,17.20
2018-07-04T12:20:54.991Z,11.73
2018-07-04T12:23:23.066Z,14.18
2018-07-04T12:25:51.492Z,20.77
2018-07-04T12:28:19.609Z,22.70
2018-07-04T12:30:47.700Z,11.53
2018-07-04T12:33:16.333Z,10.82
2018-07-04T12:35:44.458Z,14.58
2018-07-04T12:38:12.670Z,21.40
2018-07-04T12:40:40.729Z,12.47
2018-07-04T12:43:08.781Z,11.08
2018-07-04T12:45:39.547Z,20.35
2018-07-04T12:48:05.140Z,14.40
2018-07-04T12:50:34.003Z,13.65
2018-07-04T12:53:02.346Z,15.25
2018-07-04T12:55:44.754Z,11.22
2018-07-04T12:58:31.589Z,13.28
2018-07-04T13:01:18.884Z,16.45
2018-07-04T13:04:05.652Z,13.10
2018-07-04T13:06:53.028Z,15.60
2018-07-04T13:09:39.839Z,13.50
2018-07-04T13:12:27.300Z,12.43
2018-07-04T13:15:13.940Z,15.80
2018-07-04T13:18:00.992Z,13.62
2018-07-04T13:20:47.960Z,13.50
2018-07-04T13:23:35.233Z,19.30
2018-07-04T13:26:22.068Z,15.45
2018-07-04T13:29:09.237Z,17.10
2018-07-04T13:31:56.012Z,16.50
2018-07-04T13:34:43.257Z,17.17
2018-07-04T13:37:30.053Z,17.52
2018-07-04T13:40:16.714Z,19.87
2018-07-04T13:43:04.228Z,31.62
2018-07-04T13:45:51.179Z,16.12
2018-07-04T13:48:37.807Z,15.60
2018-07-04T13:51:24.770Z,11.28
2018-07-04T13:54:11.600Z,12.30
2018-07-04T13:56:58.653Z,14.15
2018-07-04T13:59:45.519Z,14.15
2018-07-04T14:02:32.431Z,15.00
2018-07-04T14:05:19.201Z,30.35
2018-07-04T14:08:06.371Z,13.28
2018-07-04T14:10:52.770Z,16.00
2018-07-04T14:13:39.643Z,9.73
2018-07-04T14:16:25.969Z,25.72
2018-07-04T14:19:13.208Z,9.45
2018-07-04T14:22:00.038Z,11.38
2018-07-04T14:24:47.402Z,11.65
2018-07-04T14:27:34.147Z,15.38
2018-07-04T14:30:20.926Z,14.80
2018-07-04T14:33:07.987Z,11.93
2018-07-04T14:35:55.072Z,15.38
2018-07-04T14:38:42.120Z,20.25
2018-07-04T14:41:28.810Z,17.42
2018-07-04T14:44:15.268Z,28.32
2018-07-04T14:47:02.027Z,16.10
2018-07-04T14:49:48.957Z,18.73
2018-07-04T14:52:35.876Z,20.30
2018-07-04T14:55:22.633Z,16.02
2018-07-04T14:58:09.904Z,18.67
2018-07-04T15:00:56.602Z,23.52
2018-07-04T15:03:44.144Z,19.57
2018-07-04T15:06:31.264Z,15.85
2018-07-04T15:09:18.590Z,22.80
2018-07-04T15:12:05.157Z,21.77
2018-07-04T15:14:52.119Z,20.45
2018-07-04T15:17:39.240Z,18.62
2018-07-04T15:20:26.245Z,32.83
2018-07-04T15:23:13.272Z,19.13
2018-07-04T15:26:00.688Z,8.53
2018-07-04T15:28:47.908Z,14.20
2018-07-04T15:31:35.334Z,20.80
2018-07-04T15:34:22.937Z,20.53
2018-07-04T15:37:10.032Z,19.27
2018-07-04T15:39:56.692Z,19.97
2018-07-04T15:42:43.775Z,32.27
2018-07-04T15:45:30.943Z,24.57
2018-07-04T15:48:18.324Z,38.17
2018-07-04T15:51:05.494Z,48.37
2018-07-04T15:53:53.224Z,45.80
2018-07-04T15:56:40.637Z,50.07
2018-07-04T15:59:28.035Z,66.03
2018-07-04T16:02:14.976Z,55.37
2018-07-04T16:05:02.505Z,58.83
2018-07-04T16:07:49.744Z,37.90
2018-07-04T16:10:37.393Z,25.30
2018-07-04T16:13:24.074Z,25.10
2018-07-04T16:16:11.292Z,34.27
2018-07-04T16:18:58.509Z,34.80
2018-07-04T16:21:46.135Z,21.80
2018-07-04T16:24:33.321Z,20.13
2018-07-04T16:27:20.894Z,31.13
2018-07-04T16:30:08.419Z,24.23
2018-07-04T16:32:55.843Z,28.83
2018-07-04T16:35:42.997Z,25.27
2018-07-04T16:38:29.970Z,28.37
2018-07-04T16:41:16.650Z,30.60
2018-07-04T16:44:04.324Z,34.97
2018-07-04T16:46:51.240Z,28.97
2018-07-04T16:49:38.972Z,27.37
2018-07-04T16:52:26.277Z,40.50
2018-07-04T16:55:13.715Z,33.60
2018-07-04T16:58:00.839Z,33.13
2018-07-04T17:00:48.369Z,35.13
2018-07-04T17:03:35.589Z,39.27
2018-07-04T17:06:23.313Z,33.07
2018-07-04T17:09:10.169Z,31.20
2018-07-04T17:11:57.269Z,27.87
2018-07-04T17:14:44.580Z,36.50
2018-07-04T17:17:31.668Z,38.43
2018-07-04T17:20:18.786Z,41.63
2018-07-04T17:23:06.653Z,43.67
2018-07-04T17:25:53.874Z,38.37
2018-07-04T17:28:41.218Z,51.07
2018-07-04T17:31:28.430Z,53.10
2018-07-04T17:34:15.684Z,57.10
2018-07-04T17:37:02.861Z,57.97
2018-07-04T17:39:49.658Z,56.50
2018-07-04T17:42:37.040Z,51.80
2018-07-04T17:45:24.689Z,40.63
2018-07-04T17:48:11.854Z,45.53
2018-07-04T17:50:59.454Z,44.43
2018-07-04T17:53:47.023Z,42.80
2018-07-04T17:56:34.648Z,41.53
2018-07-04T17:59:21.968Z,41.83
2018-07-04T18:02:09.392Z,41.53
2018-07-04T18:04:56.817Z,32.97
2018-07-04T18:07:45.043Z,39.23
2018-07-04T18:10:32.490Z,28.37
2018-07-04T18:13:20.682Z,24.77
2018-07-04T18:16:07.975Z,22.03
2018-07-04T18:18:55.572Z,22.40
2018-07-04T18:21:42.709Z,26.30
2018-07-04T18:24:30.144Z,25.20
2018-07-04T18:27:17.013Z,33.30
2018-07-04T18:30:04.196Z,32.27
2018-07-04T18:32:51.033Z,28.33
2018-07-04T18:35:38.739Z,43.53
2018-07-04T18:38:25.964Z,45.47
2018-07-04T18:41:13.772Z,48.87
2018-07-04T18:44:00.925Z,54.13
2018-07-04T18:46:48.417Z,50.73
2018-07-04T18:49:35.655Z,52.93
2018-07-04T18:52:22.724Z,51.50
2018-07-04T18:55:09.419Z,50.77
2018-07-04T18:57:56.495Z,53.00
2018-07-04T19:00:43.356Z,48.43
2018-07-04T19:03:31.045Z,39.70
2018-07-04T19:06:18.392Z,34.17
2018-07-04T19:09:06.906Z,32.47
2018-07-04T19:11:54.132Z,42.00
2018-07-04T19:14:41.798Z,36.27
2018-07-04T19:17:29.291Z,35.33
2018-07-04T19:20:17.022Z,37.20
2018-07-04T19:23:04.434Z,38.63
2018-07-04T19:25:51.094Z,43.10
2018-07-04T19:28:38.203Z,48.10
2018-07-04T19:31:24.943Z,45.93
2018-07-04T19:34:12.218Z,46.90
2018-07-04T19:36:58.878Z,32.73
2018-07-04T19:39:46.047Z,24.13
2018-07-04T19:42:32.725Z,23.23
2018-07-04T19:45:19.696Z,27.27
2018-07-04T19:48:06.625Z,24.40
2018-07-04T19:50:53.529Z,21.93
2018-07-04T19:53:39.934Z,20.97
2018-07-04T19:56:26.663Z,23.33
2018-07-04T19:59:13.078Z,19.33
2018-07-04T20:02:00.116Z,17.60
2018-07-04T20:04:46.778Z,17.03
2018-07-04T20:07:33.978Z,22.43
2018-07-04T20:10:20.768Z,31.20
2018-07-04T20:13:07.676Z,30.83
2018-07-04T20:15:54.271Z,37.80
2018-07-04T20:18:41.160Z,33.17
2018-07-04T20:21:28.039Z,39.17
2018-07-04T20:24:15.250Z,47.63
2018-07-04T20:27:01.767Z,45.57
2018-07-04T20:29:48.781Z,44.13
2018-07-04T20:32:35.817Z,43.70
2018-07-04T20:35:22.920Z,44.53
2018-07-04T20:38:09.490Z,45.13
2018-07-04T20:40:56.746Z,49.33
2018-07-04T20:43:43.535Z,54.73
2018-07-04T20:46:30.466Z,53.27
2018-07-04T20:49:17.701Z,46.87
2018-07-04T20:52:04.583Z,46.63
2018-07-04T20:54:51.568Z,37.50
2018-07-04T20:57:37.880Z,32.80
2018-07-04T21:00:24.952Z,32.63
2018-07-04T21:03:11.664Z,30.40
2018-07-04T21:05:58.661Z,22.73
2018-07-04T21:08:45.303Z,24.23
2018-07-04T21:11:32.594Z,20.93
2018-07-04T21:14:19.118Z,23.40
2018-07-04T21:17:06.012Z,25.63
2018-07-04T21:19:52.747Z,25.17
2018-07-04T21:22:40.248Z,19.40
2018-07-04T21:25:26.819Z,21.37
2018-07-04T21:28:13.579Z,21.13
2018-07-04T21:31:00.472Z,27.50
2018-07-04T21:33:47.904Z,20.50
2018-07-04T21:36:34.796Z,19.83
2018-07-04T21:39:21.965Z,16.63
2018-07-04T21:42:08.718Z,23.60
2018-07-04T21:44:55.563Z,23.20
2018-07-04T21:47:42.654Z,24.87
2018-07-04T21:50:29.966Z,23.93
2018-07-04T21:53:16.423Z,17.80
2018-07-04T21:56:02.880Z,18.57
2018-07-04T21:58:49.742Z,15.03
2018-07-04T22:01:36.947Z,13.67
2018-07-04T22:04:23.512Z,13.17
2018-07-04T22:07:10.928Z,14.80
2018-07-04T22:09:57.666Z,15.50
2018-07-04T22:12:44.748Z,15.57
2018-07-04T22:15:31.446Z,19.40
2018-07-04T22:18:18.530Z,17.80
2018-07-04T22:21:05.096Z,21.10
2018-07-04T22:23:51.934Z,22.43
2018-07-04T22:26:38.286Z,18.67
2018-07-04T22:29:24.839Z,22.37
2018-07-04T22:32:11.411Z,25.87
2018-07-04T22:34:58.075Z,19.43
2018-07-04T22:37:45.485Z,16.17
2018-07-04T22:40:32.190Z,17.40
2018-07-04T22:43:19.330Z,19.20
2018-07-04T22:46:06.134Z,18.77
2018-07-04T22:48:52.834Z,19.50
2018-07-04T22:51:39.650Z,15.33
2018-07-04T22:54:26.219Z,17.07
2018-07-04T22:57:12.860Z,13.50
2018-07-04T23:00:00.179Z,20.13
2018-07-04T23:02:46.902Z,13.90
2018-07-04T23:05:34.134Z,17.87
2018-07-04T23:08:21.143Z,22.17
2018-07-04T23:11:08.067Z,19.33
2018-07-04T23:13:54.859Z,21.67
2018-07-04T23:16:42.106Z,22.23
2018-07-04T23:19:28.526Z,21.40
2018-07-04T23:22:15.318Z,22.13
2018-07-04T23:25:02.004Z,20.47
2018-07-04T23:27:48.763Z,15.67
2018-07-04T23:30:35.518Z,25.73
2018-07-04T23:33:22.433Z,18.67
2018-07-04T23:36:09.686Z,21.33
2018-07-04T23:38:56.472Z,21.77
2018-07-04T23:41:43.919Z,15.17
2018-07-04T23:44:30.495Z,16.03
2018-07-04T23:47:17.315Z,16.43
2018-07-04T23:50:03.648Z,17.23
2018-07-04T23:52:50.371Z,14.60
2018-07-04T23:55:37.236Z,14.93
2018-07-04T23:58:24.586Z,15.70
